デンパサール の空港の天気 - METARとTAF

デンパサール国際空港 ( WADD / DPS ) - インドネシア バリ島デンパサール
飛行場実況気象(Metar)
観測時間10/22 11:30 WITA (10/22 03:30 UTC)
風向・風速東 3m/s
視程10km以上
天気現象
全天の4割程度の雲 雲底高度 520m
気温31℃
湿度62%
気圧1013hPa
METARWADD 220330Z 10005KT 050V130 9999 SCT017 31/23 Q1013 NOSIG
過去の天気等 Google飛行場航空写真 Wunderground天気予報

過去48時間のMETAR

飛行場予報(TAF)
発表時間: 10/23 07:00 WITA (10/22 23:00 UTC)
予報対象時間: 23日8時 WITA ~ 24日8時 WITA
風向・風速南南西 5m/s
視程10km以上
全天の4割程度の雲 雲底高度 490m
23日15時 WITA ~ 23日19時 WITA に一時的に
全天の8割程度の雲 雲底高度 460m
TAF WADD 222300Z 2300/2400 20010KT 9999 SCT016
TEMPO 2307/2311 BKN015